Time;durP1;ratioP1;P1;durP2;ratioP2;P2;SDS_P1;SDS_P2;PMS_P1;PMS_P2;Temp;Humidity;BMP_temperature;BMP_pressure;BME280_temperature;BME280_humidity;BME280_pressure;Samples;Min_cycle;Max_cycle;Signal;HPM_P1;HPM_P2
2022/07/28 04:00:17;;;;;;;5.53;3.23;;;19.20;99.90;;;;;;6125870;23;20413;-73
2022/07/28 04:02:44;;;;;;;8.60;2.80;;;19.10;99.90;;;;;;4985047;28;20835;-73
2022/07/28 04:05:11;;;;;;;5.63;2.53;;;19.20;99.90;;;;;;4986133;28;20465;-73
2022/07/28 04:07:39;;;;;;;4.67;2.77;;;19.10;99.90;;;;;;4986639;28;20525;-73
2022/07/28 04:10:07;;;;;;;4.47;3.00;;;19.10;99.90;;;;;;4985846;28;21246;-73
2022/07/28 04:12:46;;;;;;;3.80;2.50;;;19.10;99.90;;;;;;4985585;28;20480;-73
2022/07/28 04:15:13;;;;;;;4.17;2.87;;;19.10;99.90;;;;;;4986226;28;20472;-75
2022/07/28 04:17:41;;;;;;;4.30;2.70;;;19.10;99.90;;;;;;4986397;28;21615;-75
2022/07/28 04:20:09;;;;;;;4.00;2.73;;;19.10;99.90;;;;;;4986512;28;20466;-74
2022/07/28 04:22:36;;;;;;;4.73;3.50;;;19.20;99.90;;;;;;4986240;28;20855;-74
2022/07/28 04:25:04;;;;;;;3.83;2.90;;;19.10;99.90;;;;;;4984922;28;20455;-75
2022/07/28 04:27:30;;;;;;;5.43;3.27;;;19.10;99.90;;;;;;4986263;28;20464;-75
2022/07/28 04:29:57;;;;;;;8.20;3.23;;;19.10;99.90;;;;;;4986412;28;20470;-75
2022/07/28 04:32:24;;;;;;;4.07;2.63;;;19.10;99.90;;;;;;4985978;28;20987;-75
2022/07/28 04:34:52;;;;;;;4.13;2.77;;;19.10;99.90;;;;;;4985268;28;20554;-75
2022/07/28 04:37:19;;;;;;;4.70;2.80;;;19.10;99.90;;;;;;4985669;28;21354;-75
2022/07/28 04:39:46;;;;;;;5.53;2.97;;;19.10;99.90;;;;;;4986256;28;20472;-75
2022/07/28 04:42:13;;;;;;;4.17;2.90;;;19.10;99.90;;;;;;4985987;28;20501;-75
2022/07/28 04:44:41;;;;;;;4.37;2.70;;;19.10;99.90;;;;;;4987869;28;20558;-75
2022/07/28 04:47:08;;;;;;;5.47;2.90;;;19.10;99.90;;;;;;4990265;28;20865;-75
2022/07/28 04:49:35;;;;;;;4.30;2.50;;;19.10;99.90;;;;;;4990252;28;20464;-73
2022/07/28 04:52:03;;;;;;;3.93;2.70;;;19.10;99.90;;;;;;4990366;28;20487;-73
2022/07/28 04:54:30;;;;;;;4.00;2.80;;;19.10;99.90;;;;;;4989482;28;20459;-73
2022/07/28 04:56:57;;;;;;;5.50;3.10;;;19.10;99.90;;;;;;4989613;28;20576;-73
2022/07/28 04:59:24;;;;;;;4.70;3.10;;;19.10;99.90;;;;;;4990180;28;20470;-73
2022/07/28 05:01:51;;;;;;;4.70;2.93;;;19.10;99.90;;;;;;4989972;28;20585;-73
2022/07/28 05:04:17;;;;;;;6.47;3.40;;;19.10;99.90;;;;;;4989263;28;20458;-75
2022/07/28 05:06:44;;;;;;;5.93;2.97;;;19.20;99.90;;;;;;4989810;28;20823;-73
2022/07/28 05:09:12;;;;;;;5.10;3.07;;;19.10;99.90;;;;;;4989235;28;20475;-73
2022/07/28 05:11:39;;;;;;;3.90;2.87;;;19.10;99.90;;;;;;4989772;28;20558;-73
2022/07/28 05:14:06;;;;;;;5.03;2.80;;;19.20;99.90;;;;;;4988855;28;20466;-73
2022/07/28 05:16:33;;;;;;;3.50;3.20;;;19.20;99.90;;;;;;4989690;28;20455;-73
2022/07/28 05:18:59;;;;;;;7.63;3.10;;;19.20;99.90;;;;;;4989785;28;20843;-73
2022/07/28 05:21:26;;;;;;;6.93;3.30;;;19.20;99.90;;;;;;4989349;28;20479;-74
2022/07/28 05:23:53;;;;;;;7.23;3.30;;;19.20;99.90;;;;;;4989502;28;20474;-74
2022/07/28 05:26:22;;;;;;;5.90;3.20;;;19.20;99.90;;;;;;4988616;28;20455;-74
2022/07/28 05:28:48;;;;;;;6.50;2.80;;;19.20;99.90;;;;;;4988518;28;20451;-74
2022/07/28 05:31:15;;;;;;;7.97;3.20;;;19.20;99.90;;;;;;4989334;28;20483;-75
2022/07/28 05:33:42;;;;;;;6.67;3.20;;;19.20;99.90;;;;;;4987481;28;20467;-75
2022/07/28 05:36:11;;;;;;;6.60;3.23;;;19.20;99.90;;;;;;4988654;28;20962;-75
2022/07/28 05:38:38;;;;;;;6.43;3.20;;;19.20;99.90;;;;;;4989304;28;20487;-75
2022/07/28 05:41:05;;;;;;;7.23;3.27;;;19.30;99.90;;;;;;4987596;28;20475;-75
2022/07/28 05:43:36;;;;;;;5.47;3.17;;;19.30;99.90;;;;;;4987738;28;20460;-75
2022/07/28 05:46:03;;;;;;;5.50;3.50;;;19.30;99.90;;;;;;4988435;28;20463;-75
2022/07/28 05:48:30;;;;;;;4.50;3.07;;;19.30;99.90;;;;;;4988918;28;20455;-75
2022/07/28 05:50:57;;;;;;;5.00;3.30;;;19.30;99.90;;;;;;4989017;28;20475;-75
2022/07/28 05:53:24;;;;;;;7.03;3.67;;;19.30;99.90;;;;;;4988694;28;20497;-75
2022/07/28 05:55:51;;;;;;;5.80;3.20;;;19.30;99.90;;;;;;4987501;28;20459;-75
2022/07/28 05:58:21;;;;;;;5.20;3.47;;;19.30;99.90;;;;;;4988132;28;20495;-75
2022/07/28 06:00:50;;;;;;;4.77;3.30;;;19.40;99.90;;;;;;4989143;28;20493;-75
2022/07/28 06:03:18;;;;;;;6.63;3.60;;;19.40;99.90;;;;;;4980226;28;20494;-75
2022/07/28 06:05:45;;;;;;;6.17;3.37;;;19.40;99.90;;;;;;4975156;28;20456;-75
2022/07/28 06:08:12;;;;;;;10.70;4.17;;;19.40;99.90;;;;;;4985697;28;20515;-75
2022/07/28 06:13:23;;;;;;;4.30;3.37;;;19.40;99.90;;;;;;4988429;28;20450;-67
2022/07/28 06:15:52;;;;;;;4.63;3.30;;;19.40;99.90;;;;;;4988214;28;20951;-72
2022/07/28 06:18:19;;;;;;;6.77;3.80;;;19.50;99.90;;;;;;4980954;28;20488;-71
2022/07/28 06:20:46;;;;;;;4.90;3.80;;;19.50;99.90;;;;;;4971626;28;20477;-71
2022/07/28 06:23:16;;;;;;;6.00;3.77;;;19.50;99.90;;;;;;4969247;28;20520;-68
2022/07/28 06:25:42;;;;;;;5.87;3.57;;;19.50;99.90;;;;;;4968361;28;20468;-68
2022/07/28 06:28:09;;;;;;;6.13;4.00;;;19.50;99.90;;;;;;4968630;28;20456;-68
2022/07/28 06:30:36;;;;;;;6.80;4.30;;;19.50;99.90;;;;;;4979542;28;20483;-68
2022/07/28 06:33:06;;;;;;;5.00;3.70;;;19.50;99.90;;;;;;4988348;28;20463;-71
2022/07/28 06:35:33;;;;;;;4.50;3.70;;;19.60;99.90;;;;;;4987923;28;20911;-76
2022/07/28 06:38:00;;;;;;;7.13;4.60;;;19.60;99.90;;;;;;4986777;28;20500;-75
2022/07/28 06:40:27;;;;;;;6.03;3.93;;;19.60;99.90;;;;;;4986851;28;20835;-74
2022/07/28 06:42:54;;;;;;;5.53;4.07;;;19.70;99.90;;;;;;4986788;28;21160;-75
2022/07/28 06:45:21;;;;;;;5.07;4.40;;;19.70;99.90;;;;;;4969787;28;20460;-77
2022/07/28 06:47:48;;;;;;;6.57;4.33;;;19.70;99.90;;;;;;4974896;28;20463;-75
2022/07/28 06:50:16;;;;;;;4.93;4.43;;;19.80;99.90;;;;;;4973197;28;20472;-76
2022/07/28 06:52:43;;;;;;;5.53;4.00;;;19.80;99.90;;;;;;4967118;28;20460;-72
2022/07/28 06:55:10;;;;;;;7.10;4.30;;;19.80;99.90;;;;;;4978108;28;20478;-68
2022/07/28 06:57:38;;;;;;;9.33;4.50;;;19.80;99.90;;;;;;4985847;28;20491;-65
2022/07/28 07:00:06;;;;;;;10.37;5.17;;;19.90;99.90;;;;;;4977928;28;21095;-65
2022/07/28 07:02:37;;;;;;;7.30;5.23;;;19.90;99.90;;;;;;4967039;28;20907;-65
2022/07/28 07:05:05;;;;;;;5.73;4.53;;;20.00;99.90;;;;;;4966226;28;20682;-67
2022/07/28 07:07:33;;;;;;;7.20;4.00;;;20.00;99.90;;;;;;4975898;28;20529;-69
2022/07/28 07:10:00;;;;;;;5.53;4.30;;;20.10;99.90;;;;;;4980203;28;20461;-67
2022/07/28 07:12:27;;;;;;;8.03;4.63;;;20.10;99.90;;;;;;4977247;28;20478;-68
2022/07/28 07:14:54;;;;;;;5.20;4.70;;;20.20;99.90;;;;;;4977293;28;20467;-68
2022/07/28 07:17:21;;;;;;;9.23;4.60;;;20.20;99.90;;;;;;4986531;28;21250;-67
2022/07/28 07:19:47;;;;;;;5.77;4.33;;;20.30;99.90;;;;;;4986433;28;20460;-65
2022/07/28 07:22:14;;;;;;;6.20;4.67;;;20.30;99.90;;;;;;4986346;28;20846;-66
2022/07/28 07:24:42;;;;;;;6.83;4.43;;;20.40;99.90;;;;;;4985379;28;20833;-66
2022/07/28 07:27:09;;;;;;;7.30;5.10;;;20.40;99.90;;;;;;4986402;28;20462;-66
2022/07/28 07:29:36;;;;;;;4.67;4.23;;;20.50;99.90;;;;;;4986560;28;20468;-66
2022/07/28 07:32:03;;;;;;;5.00;4.37;;;20.50;99.90;;;;;;4985879;28;20586;-66
2022/07/28 07:34:30;;;;;;;5.13;4.07;;;20.60;99.90;;;;;;4985834;28;20462;-66
2022/07/28 07:36:57;;;;;;;6.60;4.73;;;20.60;99.90;;;;;;4985925;28;20474;-66
2022/07/28 07:39:24;;;;;;;8.07;5.20;;;20.70;99.90;;;;;;4985864;28;20526;-67
2022/07/28 07:41:52;;;;;;;6.53;4.80;;;20.80;99.90;;;;;;4979106;28;20472;-67
2022/07/28 07:44:19;;;;;;;5.33;4.37;;;20.80;99.90;;;;;;4982390;28;21239;-67
2022/07/28 07:46:45;;;;;;;8.17;5.40;;;20.90;99.90;;;;;;4986267;28;20491;-70
2022/07/28 07:49:12;;;;;;;7.90;5.07;;;21.00;99.90;;;;;;4985855;28;20459;-71
2022/07/28 07:51:39;;;;;;;6.60;5.10;;;21.10;99.90;;;;;;4986256;28;20489;-72
2022/07/28 07:54:06;;;;;;;7.50;4.50;;;21.10;99.90;;;;;;4985436;28;20555;-70
2022/07/28 07:56:34;;;;;;;6.53;4.83;;;21.10;99.90;;;;;;4986735;28;20495;-70
2022/07/28 07:59:02;;;;;;;5.83;4.20;;;21.20;99.90;;;;;;4986883;28;20499;-70
2022/07/28 08:01:29;;;;;;;7.30;4.67;;;21.30;99.90;;;;;;4986482;28;20498;-71
2022/07/28 08:03:58;;;;;;;6.53;4.97;;;21.40;99.90;;;;;;4977265;28;20579;-71
2022/07/28 08:06:26;;;;;;;7.00;5.50;;;21.40;99.90;;;;;;4986418;28;21006;-74
2022/07/28 08:08:53;;;;;;;5.50;4.60;;;21.50;99.90;;;;;;4986355;28;20495;-73
2022/07/28 08:11:20;;;;;;;10.17;5.80;;;21.60;99.90;;;;;;4978174;28;20468;-73
2022/07/28 08:13:47;;;;;;;7.03;5.10;;;21.60;99.90;;;;;;4973087;28;20948;-72
2022/07/28 08:16:15;;;;;;;6.80;4.33;;;21.70;99.90;;;;;;4984095;28;20558;-72
2022/07/28 08:18:42;;;;;;;8.40;5.67;;;21.80;99.90;;;;;;4985274;28;20503;-72
2022/07/28 08:21:11;;;;;;;6.40;4.63;;;21.90;99.90;;;;;;4985421;28;20475;-72
2022/07/28 08:23:38;;;;;;;8.83;5.80;;;22.00;99.90;;;;;;4985996;28;20474;-72
2022/07/28 08:26:05;;;;;;;7.37;4.97;;;22.00;99.90;;;;;;4985873;28;20455;-72
2022/07/28 08:28:32;;;;;;;6.47;5.10;;;22.10;99.90;;;;;;4986551;28;20459;-72
2022/07/28 08:30:59;;;;;;;11.50;5.33;;;22.20;99.90;;;;;;4986013;28;20840;-71
2022/07/28 08:33:27;;;;;;;10.20;5.70;;;22.30;99.90;;;;;;4986115;28;20463;-72
2022/07/28 08:35:54;;;;;;;5.90;5.13;;;22.40;99.90;;;;;;4985758;28;20455;-71
2022/07/28 08:38:21;;;;;;;5.63;4.70;;;22.50;99.90;;;;;;4986277;28;20491;-72
2022/07/28 08:40:50;;;;;;;8.20;4.80;;;22.50;99.90;;;;;;4986229;28;20480;-72
2022/07/28 08:43:26;;;;;;;5.20;4.70;;;22.70;99.90;;;;;;4986060;28;20478;-72
2022/07/28 08:45:54;;;;;;;7.20;5.33;;;22.80;99.90;;;;;;4985615;28;20530;-71
2022/07/28 08:48:22;;;;;;;6.30;5.10;;;22.80;99.90;;;;;;4985664;28;21091;-73
2022/07/28 08:50:52;;;;;;;6.77;5.80;;;22.90;99.90;;;;;;4986342;28;20889;-73
2022/07/28 08:53:20;;;;;;;9.70;5.40;;;23.00;99.90;;;;;;4985959;28;20451;-73
2022/07/28 08:55:48;;;;;;;5.80;4.80;;;23.10;99.90;;;;;;4985602;28;20463;-73
2022/07/28 08:58:16;;;;;;;5.30;4.80;;;23.20;99.90;;;;;;4985637;28;20491;-73
2022/07/28 09:00:43;;;;;;;6.40;5.07;;;23.30;99.90;;;;;;4985349;28;20854;-73
2022/07/28 09:03:12;;;;;;;12.20;5.50;;;23.30;99.90;;;;;;4985875;28;20466;-72
2022/07/28 09:05:41;;;;;;;6.80;4.70;;;23.40;99.90;;;;;;4985286;28;21180;-72
2022/07/28 09:08:10;;;;;;;6.50;5.10;;;23.50;99.90;;;;;;4986003;28;20839;-74
2022/07/28 09:10:37;;;;;;;7.00;5.30;;;23.60;99.90;;;;;;4985648;28;20476;-74
2022/07/28 09:13:04;;;;;;;5.73;4.37;;;23.70;99.90;;;;;;4985598;28;20956;-74
2022/07/28 09:15:31;;;;;;;7.13;4.60;;;23.80;99.90;;;;;;4984534;28;20559;-73
2022/07/28 09:17:58;;;;;;;5.20;4.63;;;23.90;99.90;;;;;;4985928;28;20455;-74
2022/07/28 09:20:28;;;;;;;5.00;3.90;;;24.00;99.90;;;;;;4985633;28;20478;-73
2022/07/28 09:22:59;;;;;;;5.30;4.77;;;24.10;99.90;;;;;;4986137;28;20463;-73
2022/07/28 09:25:28;;;;;;;7.70;4.50;;;24.20;99.90;;;;;;4985476;28;20908;-74
2022/07/28 09:27:55;;;;;;;5.90;5.10;;;24.20;99.90;;;;;;4987116;28;20459;-71
2022/07/28 09:30:30;;;;;;;5.87;4.97;;;24.30;99.90;;;;;;4989431;28;20471;-68
2022/07/28 09:33:19;;;;;;;8.83;4.90;;;24.40;99.90;;;;;;4992100;28;20485;-68
2022/07/28 09:35:48;;;;;;;5.00;4.03;;;24.50;99.90;;;;;;4990936;28;20467;-68
2022/07/28 09:38:16;;;;;;;7.57;4.83;;;24.60;99.90;;;;;;4992956;28;20499;-72
2022/07/28 09:40:57;;;;;;;6.87;4.23;;;24.70;99.90;;;;;;4993641;28;20488;-68
2022/07/28 09:43:32;;;;;;;6.10;5.07;;;24.80;99.90;;;;;;4993779;28;21034;-72
2022/07/28 09:46:04;;;;;;;4.80;4.30;;;24.90;99.90;;;;;;4992092;28;20447;-68
2022/07/28 09:48:31;;;;;;;7.30;4.60;;;24.90;99.90;;;;;;4993042;28;20448;-72
2022/07/28 09:51:11;;;;;;;6.80;4.60;;;25.00;99.90;;;;;;4992967;28;20987;-69
2022/07/28 09:53:38;;;;;;;4.60;4.07;;;25.00;99.90;;;;;;4993534;28;20509;-67
2022/07/28 09:56:07;;;;;;;6.23;4.50;;;25.10;99.90;;;;;;4992999;28;20467;-68
2022/07/28 09:58:34;;;;;;;5.70;4.17;;;25.20;99.90;;;;;;4992657;28;20493;-68
2022/07/28 10:01:09;;;;;;;5.50;4.10;;;25.30;99.90;;;;;;4992725;28;20498;-68
2022/07/28 10:03:37;;;;;;;5.80;4.30;;;25.30;99.90;;;;;;4993558;28;20487;-69
2022/07/28 10:06:07;;;;;;;5.97;3.77;;;25.40;99.90;;;;;;4993539;28;20471;-68
2022/07/28 10:08:48;;;;;;;5.83;3.97;;;25.40;99.90;;;;;;4992814;28;20455;-68
2022/07/28 10:11:18;;;;;;;9.30;5.00;;;25.50;99.90;;;;;;4990379;28;20476;-71
2022/07/28 10:14:02;;;;;;;7.37;4.40;;;25.60;99.90;;;;;;4990840;28;20463;-71
2022/07/28 10:16:31;;;;;;;7.37;4.50;;;25.70;99.90;;;;;;4989491;28;20492;-70
2022/07/28 10:18:59;;;;;;;6.70;4.07;;;25.70;99.90;;;;;;4989298;28;20499;-71
2022/07/28 10:21:27;;;;;;;9.07;4.40;;;25.80;99.90;;;;;;4981880;28;20539;-68
2022/07/28 10:23:56;;;;;;;6.40;4.20;;;25.90;99.90;;;;;;4986611;28;21003;-68
2022/07/28 10:26:29;;;;;;;5.43;4.23;;;25.90;99.90;;;;;;4973900;28;20464;-68
2022/07/28 10:28:56;;;;;;;7.17;4.60;;;26.00;99.90;;;;;;4974153;28;20441;-68
2022/07/28 10:31:34;;;;;;;10.23;4.13;;;26.10;99.90;;;;;;4970698;28;20843;-70
2022/07/28 10:34:03;;;;;;;6.90;4.40;;;26.10;99.90;;;;;;4972008;28;20476;-68
2022/07/28 10:36:32;;;;;;;10.53;5.27;;;26.20;99.90;;;;;;4976356;28;20456;-69
2022/07/28 10:39:04;;;;;;;11.63;5.47;;;26.20;99.90;;;;;;4982125;28;20496;-69
2022/07/28 10:41:40;;;;;;;5.50;4.20;;;26.20;99.90;;;;;;4977412;28;20487;-70
2022/07/28 10:44:12;;;;;;;14.00;5.87;;;26.30;99.90;;;;;;4971992;28;20487;-70
2022/07/28 10:46:40;;;;;;;6.60;4.87;;;26.40;99.90;;;;;;4970266;28;20494;-68
2022/07/28 10:49:08;;;;;;;4.47;4.03;;;26.40;99.90;;;;;;4972353;28;20461;-69
2022/07/28 10:51:36;;;;;;;5.80;4.40;;;26.50;99.90;;;;;;4971088;28;20480;-69
2022/07/28 10:54:10;;;;;;;6.70;4.63;;;26.60;99.90;;;;;;4985261;28;20464;-68
2022/07/28 10:56:54;;;;;;;5.20;4.20;;;26.70;99.90;;;;;;4993156;28;20444;-75
2022/07/28 10:59:48;;;;;;;6.40;5.20;;;26.70;99.90;;;;;;4987447;28;20513;-71
2022/07/28 11:02:47;;;;;;;5.87;4.70;;;26.80;99.90;;;;;;4988633;28;20519;-76
2022/07/28 11:05:38;;;;;;;6.53;4.97;;;26.80;99.90;;;;;;4987034;28;20463;-77
2022/07/28 11:08:09;;;;;;;5.60;4.17;;;26.90;99.90;;;;;;4979448;28;20460;-77
2022/07/28 11:10:48;;;;;;;7.73;4.37;;;27.00;99.90;;;;;;4975701;28;20464;-77
2022/07/28 11:13:28;;;;;;;5.10;4.20;;;27.00;99.90;;;;;;4981676;28;21074;-76
2022/07/28 11:15:56;;;;;;;6.60;4.03;;;27.00;99.90;;;;;;4967502;28;20449;-74
2022/07/28 11:18:23;;;;;;;6.63;4.40;;;27.00;99.90;;;;;;4969244;28;20464;-77
2022/07/28 11:21:06;;;;;;;8.73;4.13;;;27.00;99.90;;;;;;4976465;28;20916;-77
2022/07/28 11:23:45;;;;;;;6.53;3.83;;;27.10;99.90;;;;;;4988167;28;20475;-77
2022/07/28 11:26:36;;;;;;;6.23;4.17;;;27.10;99.90;;;;;;4990817;28;20432;-79
2022/07/28 11:29:21;;;;;;;4.20;3.80;;;27.10;99.90;;;;;;4988098;28;21507;-76
2022/07/28 11:32:01;;;;;;;7.73;4.53;;;27.20;99.90;;;;;;4990499;28;20538;-79
2022/07/28 11:35:07;;;;;;;5.13;3.67;;;27.20;99.90;;;;;;4988988;28;20444;-79
2022/07/28 11:38:07;;;;;;;3.97;3.53;;;27.20;99.90;;;;;;4989671;28;20447;-77
2022/07/28 11:40:37;;;;;;;6.50;3.70;;;27.30;99.90;;;;;;4990176;28;20504;-78
2022/07/28 11:43:34;;;;;;;5.10;3.83;;;27.40;99.90;;;;;;4989348;28;20551;-76
2022/07/28 11:46:35;;;;;;;4.83;3.50;;;27.50;99.90;;;;;;4983739;28;20464;-76
2022/07/28 11:49:21;;;;;;;6.57;3.77;;;27.50;99.90;;;;;;4986683;28;20467;-77
2022/07/28 11:52:20;;;;;;;5.70;3.87;;;27.60;99.90;;;;;;4986304;28;21485;-75
2022/07/28 11:54:53;;;;;;;3.80;3.50;;;27.60;99.90;;;;;;4986623;28;20467;-77
2022/07/28 11:57:23;;;;;;;5.00;3.93;;;27.70;99.90;;;;;;4986498;28;20844;-76
2022/07/28 11:59:53;;;;;;;6.17;3.73;;;27.60;99.90;;;;;;4986424;28;20491;-77
2022/07/28 12:02:22;;;;;;;7.03;4.03;;;27.70;99.90;;;;;;4986300;28;20558;-77
2022/07/28 12:05:10;;;;;;;6.20;4.23;;;27.70;99.90;;;;;;4985919;28;20970;-77
2022/07/28 12:07:49;;;;;;;3.80;3.33;;;27.70;99.90;;;;;;4985873;28;20474;-77
2022/07/28 12:10:34;;;;;;;4.00;3.47;;;27.70;99.90;;;;;;4986755;28;20554;-78
2022/07/28 12:13:03;;;;;;;5.73;3.73;;;27.80;99.90;;;;;;4987348;28;20806;-78
2022/07/28 12:15:30;;;;;;;4.57;3.53;;;27.90;99.90;;;;;;4988638;28;20467;-75
2022/07/28 12:17:58;;;;;;;6.53;4.00;;;27.90;99.90;;;;;;4985943;28;20953;-79
2022/07/28 12:20:30;;;;;;;5.33;3.77;;;28.00;99.90;;;;;;4981046;28;21027;-78
2022/07/28 12:23:06;;;;;;;4.53;3.20;;;28.00;99.90;;;;;;4979541;28;20461;-74
2022/07/28 12:25:41;;;;;;;6.17;3.80;;;28.00;99.90;;;;;;4973307;28;20466;-74
2022/07/28 12:28:16;;;;;;;4.90;3.53;;;28.10;99.90;;;;;;4967416;28;20440;-75
2022/07/28 12:30:43;;;;;;;4.77;3.70;;;28.00;99.90;;;;;;4967951;28;20852;-72
2022/07/28 12:33:17;;;;;;;5.90;3.60;;;28.00;99.90;;;;;;4978550;28;20471;-76
2022/07/28 12:35:45;;;;;;;6.87;3.73;;;28.10;99.90;;;;;;4983810;28;20459;-77
2022/07/28 12:38:14;;;;;;;5.80;3.43;;;28.10;99.90;;;;;;4969388;28;20453;-76
2022/07/28 12:40:41;;;;;;;4.60;3.70;;;28.10;99.90;;;;;;4968785;28;20511;-76
2022/07/28 12:43:08;;;;;;;4.00;3.60;;;28.10;99.90;;;;;;4969286;28;20559;-75
2022/07/28 12:45:44;;;;;;;5.27;3.30;;;28.10;99.90;;;;;;4968488;28;20464;-77
2022/07/28 12:48:12;;;;;;;5.60;3.43;;;28.20;99.90;;;;;;4969445;28;20464;-77
2022/07/28 12:50:40;;;;;;;7.43;3.60;;;28.20;99.90;;;;;;4977960;28;20479;-76
2022/07/28 12:53:09;;;;;;;4.90;3.57;;;28.20;99.90;;;;;;4989020;28;20470;-77
2022/07/28 12:55:38;;;;;;;5.50;3.73;;;28.30;99.90;;;;;;4988452;28;20459;-77
2022/07/28 12:58:06;;;;;;;4.33;3.33;;;28.30;99.90;;;;;;4988717;28;20952;-77
2022/07/28 13:00:36;;;;;;;5.17;3.47;;;28.40;99.90;;;;;;4986190;28;20495;-76
2022/07/28 13:03:24;;;;;;;5.40;3.57;;;28.40;99.90;;;;;;4985166;28;21212;-74
2022/07/28 13:06:03;;;;;;;5.53;3.70;;;28.50;99.90;;;;;;4986701;28;20459;-74
2022/07/28 13:08:39;;;;;;;6.17;3.63;;;28.60;99.90;;;;;;4988392;28;20463;-76
2022/07/28 13:11:08;;;;;;;4.60;3.50;;;28.70;99.90;;;;;;4989007;28;20517;-76
2022/07/28 13:13:48;;;;;;;4.17;3.53;;;28.80;99.90;;;;;;4978250;28;20480;-76
2022/07/28 13:16:15;;;;;;;4.67;3.23;;;28.80;99.90;;;;;;4968742;28;20464;-76
2022/07/28 13:18:43;;;;;;;6.83;3.60;;;28.90;99.90;;;;;;4969561;28;20460;-74
2022/07/28 13:21:10;;;;;;;5.47;3.70;;;28.90;99.90;;;;;;4973454;28;20495;-69
2022/07/28 13:23:37;;;;;;;6.93;4.40;;;28.90;99.90;;;;;;4987970;28;20912;-73
2022/07/28 13:26:05;;;;;;;3.90;3.50;;;29.00;99.90;;;;;;4987863;28;20517;-72
2022/07/28 13:28:34;;;;;;;5.43;3.87;;;29.00;99.90;;;;;;4988930;28;20472;-72
2022/07/28 13:31:01;;;;;;;5.83;4.30;;;29.00;99.90;;;;;;4985330;28;20851;-72
2022/07/28 13:33:27;;;;;;;6.07;4.17;;;29.00;99.90;;;;;;4970120;28;20968;-73
2022/07/28 13:35:54;;;;;;;6.97;4.00;;;29.00;99.90;;;;;;4971048;28;20458;-73
2022/07/28 13:38:21;;;;;;;5.67;4.10;;;29.00;99.90;;;;;;4969022;28;20880;-72
2022/07/28 13:40:48;;;;;;;4.30;3.37;;;29.10;99.90;;;;;;4980621;28;20499;-72
2022/07/28 13:43:15;;;;;;;6.73;3.60;;;29.10;99.90;;;;;;4987721;28;20470;-72
2022/07/28 13:45:43;;;;;;;3.93;3.53;;;29.10;99.90;;;;;;4987985;28;20460;-71
2022/07/28 13:48:10;;;;;;;5.17;3.50;;;29.20;99.90;;;;;;4988030;28;20466;-72
2022/07/28 13:50:37;;;;;;;5.00;3.20;;;29.20;99.90;;;;;;4974493;28;20511;-71
2022/07/28 13:53:03;;;;;;;5.43;4.43;;;29.20;99.90;;;;;;4968440;28;20460;-71
2022/07/28 13:55:30;;;;;;;3.50;3.07;;;29.20;99.90;;;;;;4969002;28;20464;-71
2022/07/28 13:57:57;;;;;;;7.70;3.63;;;29.20;99.90;;;;;;4987385;28;20460;-72
2022/07/28 14:00:24;;;;;;;4.43;3.43;;;29.30;99.90;;;;;;4989197;28;20510;-72
2022/07/28 14:02:52;;;;;;;4.57;3.80;;;29.30;99.90;;;;;;4989289;28;20450;-72
2022/07/28 14:05:19;;;;;;;4.97;3.80;;;29.30;99.90;;;;;;4988341;28;21325;-72
2022/07/28 14:07:47;;;;;;;3.27;2.97;;;29.30;99.90;;;;;;4989068;28;20463;-73
2022/07/28 14:10:14;;;;;;;5.00;3.37;;;29.30;99.90;;;;;;4988345;28;21027;-71
2022/07/28 14:12:41;;;;;;;4.10;3.27;;;29.30;99.90;;;;;;4988271;28;20542;-73
2022/07/28 14:15:09;;;;;;;4.40;3.53;;;29.30;99.90;;;;;;4988595;28;20459;-72
2022/07/28 14:17:37;;;;;;;8.10;3.70;;;29.30;99.90;;;;;;4988676;28;20459;-70
2022/07/28 14:20:07;;;;;;;5.50;3.70;;;29.20;99.90;;;;;;4986451;28;21058;-70
2022/07/28 14:22:34;;;;;;;5.50;3.07;;;29.20;99.90;;;;;;4978931;28;20480;-69
2022/07/28 14:25:00;;;;;;;3.40;3.10;;;29.20;99.90;;;;;;4975467;28;20457;-71
2022/07/28 14:27:27;;;;;;;4.23;3.27;;;29.10;99.90;;;;;;4976829;28;20463;-71
2022/07/28 14:29:54;;;;;;;4.27;3.30;;;29.10;99.90;;;;;;4979429;28;20460;-71
2022/07/28 14:32:21;;;;;;;5.33;3.90;;;29.10;99.90;;;;;;4975831;28;20481;-71
2022/07/28 14:34:49;;;;;;;6.33;3.20;;;29.10;99.90;;;;;;4976418;28;20459;-71
2022/07/28 14:37:17;;;;;;;5.33;3.77;;;29.10;99.90;;;;;;4981065;28;20455;-72
2022/07/28 14:39:44;;;;;;;6.13;3.80;;;29.10;99.90;;;;;;4987361;28;20483;-68
2022/07/28 14:42:11;;;;;;;5.60;3.50;;;29.10;99.90;;;;;;4976223;28;20551;-71
2022/07/28 14:44:38;;;;;;;6.60;3.93;;;29.10;99.90;;;;;;4970486;28;20460;-71
2022/07/28 14:47:06;;;;;;;7.10;3.40;;;29.10;99.90;;;;;;4984705;28;20463;-71
2022/07/28 14:49:33;;;;;;;8.13;3.70;;;29.10;99.90;;;;;;4987949;28;20949;-76
2022/07/28 14:52:00;;;;;;;3.60;3.30;;;29.20;99.90;;;;;;4987623;28;20480;-76
2022/07/28 14:54:28;;;;;;;4.63;3.70;;;29.20;99.90;;;;;;4986951;28;20815;-76
2022/07/28 14:56:55;;;;;;;4.83;3.50;;;29.20;99.90;;;;;;4987747;28;20464;-76
2022/07/28 14:59:22;;;;;;;4.33;3.57;;;29.30;99.90;;;;;;4979794;28;20457;-76
2022/07/28 15:01:49;;;;;;;5.77;3.17;;;29.30;99.90;;;;;;4982092;28;20873;-76
2022/07/28 15:04:16;;;;;;;6.27;2.77;;;29.30;99.90;;;;;;4983001;28;20463;-76
2022/07/28 15:06:43;;;;;;;3.50;2.70;;;29.30;99.90;;;;;;4987835;28;20491;-76
2022/07/28 15:09:09;;;;;;;5.00;2.90;;;29.30;99.90;;;;;;4978364;28;20488;-76
2022/07/28 15:11:39;;;;;;;4.90;3.03;;;29.30;99.90;;;;;;4987752;28;20978;-76
2022/07/28 15:14:06;;;;;;;9.63;3.70;;;29.40;99.90;;;;;;4983982;28;20928;-76
2022/07/28 15:16:33;;;;;;;9.00;3.60;;;29.40;99.90;;;;;;4984861;28;20460;-76
2022/07/28 15:19:01;;;;;;;4.30;3.17;;;29.50;99.90;;;;;;4980453;28;20531;-77
2022/07/28 15:21:28;;;;;;;4.07;3.07;;;29.50;99.50;;;;;;4987526;28;20610;-73
2022/07/28 15:23:55;;;;;;;6.10;3.20;;;29.50;98.50;;;;;;4987032;28;20470;-74
2022/07/28 15:26:23;;;;;;;3.27;2.97;;;29.50;98.20;;;;;;4984646;28;20444;-73
2022/07/28 15:28:51;;;;;;;6.97;3.30;;;29.60;99.60;;;;;;4988370;28;20459;-72
2022/07/28 15:31:18;;;;;;;7.47;3.43;;;29.60;99.80;;;;;;4990870;28;20587;-70
2022/07/28 15:33:44;;;;;;;3.93;3.07;;;29.60;99.90;;;;;;4990646;28;20452;-69
2022/07/28 15:36:11;;;;;;;3.00;2.70;;;29.70;98.90;;;;;;4991170;28;20458;-70
2022/07/28 15:38:39;;;;;;;4.37;3.03;;;29.70;99.90;;;;;;4989167;28;20462;-69
2022/07/28 15:41:06;;;;;;;3.80;2.83;;;29.70;98.80;;;;;;4988839;28;21066;-69
2022/07/28 15:43:33;;;;;;;3.73;3.10;;;29.80;99.20;;;;;;4988650;28;20490;-72
2022/07/28 15:46:08;;;;;;;2.80;2.60;;;29.90;99.70;;;;;;4987926;28;20460;-69
2022/07/28 15:48:35;;;;;;;4.83;3.20;;;30.00;99.40;;;;;;4988797;28;20448;-69
2022/07/28 15:51:01;;;;;;;3.50;3.20;;;30.10;98.60;;;;;;4988513;28;20488;-70
2022/07/28 15:53:28;;;;;;;4.73;3.10;;;30.10;99.80;;;;;;4989129;28;20464;-72
2022/07/28 15:55:55;;;;;;;3.53;2.80;;;30.20;99.90;;;;;;4989355;28;20448;-69
2022/07/28 15:58:25;;;;;;;7.13;3.97;;;30.20;99.30;;;;;;4989066;28;20467;-69
2022/07/28 16:00:52;;;;;;;5.27;3.17;;;30.30;98.80;;;;;;4989296;28;21120;-68
2022/07/28 16:03:21;;;;;;;6.63;2.90;;;30.30;98.50;;;;;;4990329;28;20472;-72
2022/07/28 16:05:51;;;;;;;4.10;3.37;;;30.30;99.10;;;;;;4988640;28;20459;-66
2022/07/28 16:08:19;;;;;;;4.10;3.67;;;30.30;98.90;;;;;;4989376;28;20479;-69
2022/07/28 16:10:46;;;;;;;7.00;3.83;;;30.30;99.20;;;;;;4990031;28;20487;-68
2022/07/28 16:13:14;;;;;;;4.30;3.20;;;30.30;98.30;;;;;;4990401;28;20457;-69
2022/07/28 16:15:41;;;;;;;3.40;3.10;;;30.30;98.50;;;;;;4990520;28;20460;-71
2022/07/28 16:18:08;;;;;;;5.30;3.57;;;30.20;98.00;;;;;;4990439;28;20482;-68
2022/07/28 16:20:37;;;;;;;5.77;3.80;;;30.20;98.40;;;;;;4990639;28;20507;-68
2022/07/28 16:23:04;;;;;;;4.00;3.13;;;30.20;98.40;;;;;;4990653;28;20523;-71
2022/07/28 16:25:30;;;;;;;3.47;3.10;;;30.20;98.20;;;;;;4990953;28;20459;-69
2022/07/28 16:27:57;;;;;;;3.53;3.10;;;30.20;98.10;;;;;;4991254;28;20460;-69
2022/07/28 16:30:24;;;;;;;3.33;3.03;;;30.20;98.60;;;;;;4990992;28;20554;-66
2022/07/28 16:32:51;;;;;;;3.93;3.10;;;30.20;98.80;;;;;;4990806;28;20819;-67
2022/07/28 16:35:18;;;;;;;4.50;3.40;;;30.20;98.40;;;;;;4990965;28;20455;-68
2022/07/28 16:37:47;;;;;;;5.40;3.80;;;30.10;99.00;;;;;;4991235;28;20514;-68
2022/07/28 16:40:14;;;;;;;6.13;3.50;;;30.20;99.30;;;;;;4991181;28;20478;-68
2022/07/28 16:42:41;;;;;;;7.67;3.30;;;30.10;99.20;;;;;;4991574;28;20486;-69
2022/07/28 16:45:09;;;;;;;5.20;3.33;;;30.10;99.10;;;;;;4990849;28;21014;-68
2022/07/28 16:47:36;;;;;;;4.00;2.93;;;30.10;99.00;;;;;;4991266;28;20455;-69
2022/07/28 16:50:03;;;;;;;5.77;3.50;;;30.10;98.70;;;;;;4991526;28;20466;-69
2022/07/28 16:52:30;;;;;;;3.83;3.40;;;30.00;98.30;;;;;;4991145;28;21102;-68
2022/07/28 16:54:59;;;;;;;4.20;3.70;;;30.00;97.80;;;;;;4991165;28;20467;-69
2022/07/28 16:57:25;;;;;;;3.93;3.53;;;30.00;97.70;;;;;;4989971;28;21109;-71
2022/07/28 16:59:52;;;;;;;4.60;3.23;;;29.90;98.20;;;;;;4990287;28;20466;-68